Zenith Leader — 2ACU6 — position and weather

sailwx.info

Track history (hours):
 
Tides and Currents Weather Stations Pressure Air Temp Water Temp Dewpoint Dewpoint Depression Visibility Wind Speed Wind Dir Waves Ship Positions

Zenith Leader

Last reported at 2017-Aug-12 10:30 UTC. Time now 2017-Aug-22 20:46 UTC.
Position N 01°17' E 103°21'.
Warning: this ship's position is 10 days out of date.

Length 200 m; draft 9 m.

Type: Cargo ship. MMSI: 235058697.

Date/timePositionNaut miles runAvg speedWind from/ knotsBaromVisibWave heightAir tempDewpointWater temp
2017-Aug-12 10:30N 01°17' E 103°21'815.8
2017-Aug-12 10:00N 01°13' E 103°28'815.1
2017-Aug-12 09:30N 01°12' E 103°36'5 9.1
2017-Aug-12 09:00N 01°12' E 103°40'4 8.5
2017-Aug-12 08:30N 01°15' E 103°43'3 5.3
2017-Aug-12 08:00N 01°17' E 103°45'0 0.1
2017-Aug-12 07:29N 01°17' E 103°45'0 0.0
2017-Aug-12 06:59N 01°17' E 103°45'0 0.0
2017-Aug-12 06:29N 01°17' E 103°45'0 0.0
2017-Aug-12 05:59N 01°17' E 103°45'0 0.0
2017-Aug-12 05:29N 01°17' E 103°45'0 0.0
2017-Aug-12 04:59N 01°17' E 103°45'0 0.0
2017-Aug-12 04:29N 01°17' E 103°45'0 0.0
2017-Aug-12 03:56N 01°17' E 103°45'0 0.0
2017-Aug-12 03:29N 01°17' E 103°45'0 0.0
2017-Aug-12 02:59N 01°17' E 103°45'0 0.0
2017-Aug-12 02:26N 01°17' E 103°45'0 0.0
2017-Aug-12 01:59N 01°17' E 103°45'0 0.0
2017-Aug-12 01:29N 01°17' E 103°45'0 0.0
2017-Aug-12 00:59N 01°17' E 103°45'0 0.0
2017-Aug-12 00:29N 01°17' E 103°45'0 0.0
2017-Aug-11 23:59N 01°17' E 103°45'0 0.0
2017-Aug-11 23:29N 01°17' E 103°45'0 0.0
2017-Aug-11 22:59N 01°17' E 103°45'0 0.0
2017-Aug-11 22:29N 01°17' E 103°45'0 0.0
2017-Aug-11 21:59N 01°17' E 103°45'0 0.0
2017-Aug-11 21:29N 01°17' E 103°45'0 0.0
2017-Aug-11 20:59N 01°17' E 103°45'0 0.0
2017-Aug-11 20:26N 01°17' E 103°45'0 0.0
2017-Aug-11 19:59N 01°17' E 103°45'0 0.0
2017-Aug-11 19:29N 01°17' E 103°45'0 0.0
2017-Aug-11 18:59N 01°17' E 103°45'0 0.0
2017-Aug-11 18:29N 01°17' E 103°45'0 0.0
2017-Aug-11 17:59N 01°17' E 103°45'0 0.0
2017-Aug-11 17:29N 01°17' E 103°45'0 0.0
2017-Aug-11 16:59N 01°17' E 103°45'0 0.0
2017-Aug-11 16:29N 01°17' E 103°45'0 0.0
2017-Aug-11 15:59N 01°17' E 103°45'0 0.0
2017-Aug-11 15:29N 01°17' E 103°45'0 0.0
2017-Aug-11 14:59N 01°17' E 103°45'0 0.0
2017-Aug-11 14:29N 01°17' E 103°45'0 0.0
2017-Aug-11 13:29N 01°17' E 103°45'0 0.0
2017-Aug-11 12:59N 01°17' E 103°45'0 0.0
2017-Aug-11 12:29N 01°17' E 103°45'0 0.0
2017-Aug-11 11:56N 01°17' E 103°45'0 0.0
2017-Aug-11 11:29N 01°17' E 103°45'0 0.0
2017-Aug-11 10:59N 01°17' E 103°45'0 0.1
2017-Aug-11 10:30N 01°17' E 103°45'1 2.1
2017-Aug-11 10:01N 01°16' E 103°45'510.2
2017-Aug-11 09:30N 01°13' E 103°49'5 9.7
2017-Aug-11 09:00N 01°13' E 103°54'1 2.5
2017-Aug-11 08:30N 01°14' E 103°55'2 4.6
2017-Aug-11 08:00N 01°15' E 103°57'  
2017-Aug-04 18:19N 22°21' E 119°51'619.2
2017-Aug-04 18:00N 22°27' E 119°52'919.0
2017-Aug-04 17:30N 22°36' E 119°53'918.9
2017-Aug-04 17:00N 22°46' E 119°53'  
Track history (hours):
 
Tides and Currents Weather Stations Pressure Air Temp Water Temp Dewpoint Dewpoint Depression Visibility Wind Speed Wind Dir Waves Ship Positions

Zenith Leader

Last reported at 2017-Aug-12 10:30 UTC. Time now 2017-Aug-22 20:46 UTC.
Position N 01°17' E 103°21'.
Warning: this ship's position is 10 days out of date.

Length 200 m; draft 9 m.

Type: Cargo ship. MMSI: 235058697.

Date/timePositionNaut miles runAvg speedWind from/ knotsBaromVisibWave heightAir tempDewpointWater temp
2017-Aug-12 10:30N 01°17' E 103°21'815.8
2017-Aug-12 10:00N 01°13' E 103°28'815.1
2017-Aug-12 09:30N 01°12' E 103°36'5 9.1
2017-Aug-12 09:00N 01°12' E 103°40'4 8.5
2017-Aug-12 08:30N 01°15' E 103°43'3 5.3
2017-Aug-12 08:00N 01°17' E 103°45'0 0.1
2017-Aug-12 07:29N 01°17' E 103°45'0 0.0
2017-Aug-12 06:59N 01°17' E 103°45'0 0.0
2017-Aug-12 06:29N 01°17' E 103°45'0 0.0
2017-Aug-12 05:59N 01°17' E 103°45'0 0.0
2017-Aug-12 05:29N 01°17' E 103°45'0 0.0
2017-Aug-12 04:59N 01°17' E 103°45'0 0.0
2017-Aug-12 04:29N 01°17' E 103°45'0 0.0
2017-Aug-12 03:56N 01°17' E 103°45'0 0.0
2017-Aug-12 03:29N 01°17' E 103°45'0 0.0
2017-Aug-12 02:59N 01°17' E 103°45'0 0.0
2017-Aug-12 02:26N 01°17' E 103°45'0 0.0
2017-Aug-12 01:59N 01°17' E 103°45'0 0.0
2017-Aug-12 01:29N 01°17' E 103°45'0 0.0
2017-Aug-12 00:59N 01°17' E 103°45'0 0.0
2017-Aug-12 00:29N 01°17' E 103°45'0 0.0
2017-Aug-11 23:59N 01°17' E 103°45'0 0.0
2017-Aug-11 23:29N 01°17' E 103°45'0 0.0
2017-Aug-11 22:59N 01°17' E 103°45'0 0.0
2017-Aug-11 22:29N 01°17' E 103°45'0 0.0
2017-Aug-11 21:59N 01°17' E 103°45'0 0.0
2017-Aug-11 21:29N 01°17' E 103°45'0 0.0
2017-Aug-11 20:59N 01°17' E 103°45'0 0.0
2017-Aug-11 20:26N 01°17' E 103°45'0 0.0
2017-Aug-11 19:59N 01°17' E 103°45'0 0.0
2017-Aug-11 19:29N 01°17' E 103°45'0 0.0
2017-Aug-11 18:59N 01°17' E 103°45'0 0.0
2017-Aug-11 18:29N 01°17' E 103°45'0 0.0
2017-Aug-11 17:59N 01°17' E 103°45'0 0.0
2017-Aug-11 17:29N 01°17' E 103°45'0 0.0
2017-Aug-11 16:59N 01°17' E 103°45'0 0.0
2017-Aug-11 16:29N 01°17' E 103°45'0 0.0
2017-Aug-11 15:59N 01°17' E 103°45'0 0.0
2017-Aug-11 15:29N 01°17' E 103°45'0 0.0
2017-Aug-11 14:59N 01°17' E 103°45'0 0.0
2017-Aug-11 14:29N 01°17' E 103°45'0 0.0
2017-Aug-11 13:29N 01°17' E 103°45'0 0.0
2017-Aug-11 12:59N 01°17' E 103°45'0 0.0
2017-Aug-11 12:29N 01°17' E 103°45'0 0.0
2017-Aug-11 11:56N 01°17' E 103°45'0 0.0
2017-Aug-11 11:29N 01°17' E 103°45'0 0.0
2017-Aug-11 10:59N 01°17' E 103°45'0 0.1
2017-Aug-11 10:30N 01°17' E 103°45'1 2.1
2017-Aug-11 10:01N 01°16' E 103°45'510.2
2017-Aug-11 09:30N 01°13' E 103°49'5 9.7
2017-Aug-11 09:00N 01°13' E 103°54'1 2.5
2017-Aug-11 08:30N 01°14' E 103°55'2 4.6
2017-Aug-11 08:00N 01°15' E 103°57'  
2017-Aug-04 18:19N 22°21' E 119°51'619.2
2017-Aug-04 18:00N 22°27' E 119°52'919.0
2017-Aug-04 17:30N 22°36' E 119°53'918.9
2017-Aug-04 17:00N 22°46' E 119°53'  

Dump ship's entire track history